Zrenjanin Airport

LYZR · Vojvodina, Serbia

使用的METAR站距离机场48 km。
罗盘
风向 的 风向 的 风向 到 风向 070° Zrenjanin Airport 15/33
风: 5 kt, 2 beaufort


5 kt
改变
0 ft 1.000 2.000 3.000 4.000 5.000
CAVOK
METAR LYBT 252030Z 07005KT 040V100 CAVOK 20/12 Q1015 NOSIG

METAR Zrenjanin Airport - LYZR

Zrenjanin Airport是,Serbia中的小机场。 该机场位于纬度45,33979和经度20,45422。 该机场有一条跑道: 15/33. 本场的ICAO机场代码为LYZR。 机场在Beograd FIR中。

该航空气象观测是针对Batajnica Air Base在2024年5月25日 22:30, 当地时间进行的。

机场观察

风向为070°,速度为5 kt。 风向在040°和100°之间变化。

天气为CAVOK。这意味着在5.000 ft或MSA(最低安全高度)以下(以较高者为准)以下没有云。这也意味着没有观测到积雨云或高耸的积云,可见度为10 km 或者更多或更高。此外,不会有雾,降雨或其他重要天气。

温度和风寒是20 °C。 露点为12 °C,相对湿度为60%。 海平面上的气压为1015 hPa (QNH)。

白天

今天,太阳从04:57升起,在20:12降落。 这适用于Zrenjanin Airport,世界夏令时可能有所不同。 当地时间与世界标准时间之间的时差为+2 小时。 夏令时目前正在进行中。

公司介绍

在这个机场,你可以找到跳伞中心。 本场上唯一已知的公司是Aeroklub Zrenjanin。

体会

到Vliegles.nl去找飞行课程,跳伞和其他飞行体验。 浏览页面,了解Zrenjanin Airport附近所有可用的活动。 你也可以使用搜索功能来寻找你所在地附近的特定飞行课程、跳伞或其他飞行体验。

跑道

Id 标题 侧风 逆风 侧风 %
15/33 155°-335° 5 kt 100 %

逆风成分最大的方向会被突出显示,并用于横风计算。 这并不一定意味着这个方向在使用。

温度 & 天气

温度 20 °C
露点 12 °C
相对湿度 60%
Kp-index 0 (0-9)

白天

日出
04:59 (6:23)
中午
12:35
日落
20:11

小工具

你想在你的网站上有一个关于Zrenjanin Airport的当前航空天气(METAR)的小部件吗?

显示HTML代码
报告变更